createdAt,value
2023-01-12T00:02:24.112Z,8.90
2023-01-12T00:04:50.796Z,8.07
2023-01-12T00:07:18.082Z,10.13
2023-01-12T00:09:44.858Z,8.20
2023-01-12T00:12:12.297Z,8.95
2023-01-12T00:14:39.523Z,8.65
2023-01-12T00:17:06.771Z,6.95
2023-01-12T00:19:34.019Z,7.63
2023-01-12T00:22:05.081Z,7.35
2023-01-12T00:24:37.104Z,6.90
2023-01-12T00:29:31.938Z,7.50
2023-01-12T00:31:59.469Z,8.27
2023-01-12T00:34:29.258Z,7.75
2023-01-12T00:36:56.147Z,8.15
2023-01-12T00:39:22.815Z,8.98
2023-01-12T00:42:08.118Z,8.48
2023-01-12T00:44:53.649Z,6.93
2023-01-12T00:47:20.392Z,8.38
2023-01-12T00:49:47.486Z,7.20
2023-01-12T00:52:29.280Z,8.90
2023-01-12T00:54:57.089Z,6.63
2023-01-12T00:57:23.736Z,6.35
2023-01-12T00:59:51.516Z,7.30
2023-01-12T01:02:18.214Z,6.78
2023-01-12T01:04:44.912Z,6.57
2023-01-12T01:07:15.925Z,6.13
2023-01-12T01:09:43.178Z,6.32
2023-01-12T01:12:10.287Z,5.88
2023-01-12T01:14:36.968Z,7.07
2023-01-12T01:17:03.572Z,8.70
2023-01-12T01:19:30.159Z,8.15
2023-01-12T01:21:56.867Z,7.22
2023-01-12T01:24:23.782Z,5.57
2023-01-12T01:26:51.446Z,7.05
2023-01-12T01:29:18.411Z,5.72
2023-01-12T01:31:47.574Z,6.60
2023-01-12T01:34:14.673Z,7.05
2023-01-12T01:36:41.298Z,7.70
2023-01-12T01:39:08.023Z,6.15
2023-01-12T01:41:34.712Z,8.38
2023-01-12T01:44:25.913Z,6.75
2023-01-12T01:47:02.555Z,6.80
2023-01-12T01:49:44.918Z,7.15
2023-01-12T01:52:19.962Z,6.72
2023-01-12T01:54:54.631Z,6.20
2023-01-12T01:57:24.510Z,5.55
2023-01-12T01:59:55.190Z,4.97
2023-01-12T02:02:25.258Z,6.45
2023-01-12T02:04:53.544Z,5.70
2023-01-12T02:07:20.215Z,5.57
2023-01-12T02:09:46.915Z,6.20
2023-01-12T02:12:32.877Z,6.03
2023-01-12T02:15:18.204Z,5.30
2023-01-12T02:18:11.299Z,4.47
2023-01-12T02:20:46.384Z,5.15
2023-01-12T02:23:22.230Z,6.18
2023-01-12T02:25:58.460Z,8.23
2023-01-12T02:28:44.126Z,5.10
2023-01-12T02:31:31.826Z,5.10
2023-01-12T02:34:25.833Z,5.68
2023-01-12T02:37:11.255Z,5.28
2023-01-12T02:39:44.900Z,5.78
2023-01-12T02:42:39.939Z,6.40
2023-01-12T02:45:34.536Z,5.03
2023-01-12T02:48:17.501Z,5.38
2023-01-12T02:50:57.188Z,6.13
2023-01-12T02:53:44.856Z,5.00
2023-01-12T02:56:15.738Z,5.88
2023-01-12T02:58:47.759Z,4.20
2023-01-12T03:03:42.498Z,5.18
2023-01-12T03:06:09.904Z,4.55
2023-01-12T03:08:39.186Z,5.28
2023-01-12T03:11:16.087Z,4.82
2023-01-12T03:13:51.096Z,5.03
2023-01-12T03:16:38.106Z,4.38
2023-01-12T03:19:09.794Z,5.43
2023-01-12T03:21:42.854Z,4.30
2023-01-12T03:24:14.022Z,5.90
2023-01-12T03:26:52.559Z,4.47
2023-01-12T03:29:31.918Z,4.45
2023-01-12T03:31:59.584Z,4.68
2023-01-12T03:34:26.706Z,4.32
2023-01-12T03:37:16.073Z,3.38
2023-01-12T03:39:55.877Z,4.65
2023-01-12T03:42:31.603Z,3.92
2023-01-12T03:45:25.244Z,4.95
2023-01-12T03:47:57.481Z,5.80
2023-01-12T03:50:34.412Z,3.67
2023-01-12T03:53:02.691Z,4.50
2023-01-12T03:55:30.735Z,3.75
2023-01-12T03:57:58.154Z,3.50
2023-01-12T04:00:26.469Z,4.93
2023-01-12T04:03:03.686Z,3.72
2023-01-12T04:05:30.377Z,6.15
2023-01-12T04:07:56.982Z,4.30
2023-01-12T04:10:23.540Z,4.32
2023-01-12T04:12:50.099Z,3.25
2023-01-12T04:15:16.739Z,3.72
2023-01-12T04:17:44.423Z,4.05
2023-01-12T04:20:11.545Z,3.88
2023-01-12T04:22:43.869Z,3.88
2023-01-12T04:25:14.978Z,3.33
2023-01-12T04:27:50.063Z,3.87
2023-01-12T04:30:19.025Z,10.85
2023-01-12T04:32:46.404Z,3.15
2023-01-12T04:35:13.171Z,4.15
2023-01-12T04:37:40.325Z,3.63
2023-01-12T04:40:08.223Z,4.28
2023-01-12T04:42:53.673Z,3.42
2023-01-12T04:45:20.317Z,3.83
2023-01-12T04:47:46.919Z,3.10
2023-01-12T04:50:13.639Z,4.97
2023-01-12T04:52:40.539Z,3.45
2023-01-12T04:55:07.415Z,3.45
2023-01-12T04:57:34.047Z,3.65
2023-01-12T05:00:00.615Z,4.30
2023-01-12T05:02:27.856Z,4.65
2023-01-12T05:04:54.462Z,3.72
2023-01-12T05:07:21.523Z,3.85
2023-01-12T05:10:06.571Z,2.95
2023-01-12T05:12:33.246Z,4.10
2023-01-12T05:14:59.875Z,3.25
2023-01-12T05:17:26.820Z,3.53
2023-01-12T05:19:53.492Z,4.55
2023-01-12T05:22:20.131Z,3.97
2023-01-12T05:24:46.687Z,3.80
2023-01-12T05:27:13.295Z,2.90
2023-01-12T05:29:39.906Z,3.08
2023-01-12T05:32:06.546Z,3.25
2023-01-12T05:34:33.248Z,3.90
2023-01-12T05:36:59.840Z,4.13
2023-01-12T05:39:26.473Z,3.53
2023-01-12T05:42:11.804Z,3.30
2023-01-12T05:44:38.472Z,3.38
2023-01-12T05:47:05.109Z,3.65
2023-01-12T05:49:31.783Z,3.50
2023-01-12T05:51:58.396Z,3.50
2023-01-12T05:54:25.064Z,2.88
2023-01-12T05:56:51.659Z,3.05
2023-01-12T05:59:18.471Z,3.50
2023-01-12T06:01:45.099Z,3.05
2023-01-12T06:04:11.724Z,3.38
2023-01-12T06:06:38.437Z,6.07
2023-01-12T06:09:05.131Z,6.05
2023-01-12T06:11:50.269Z,7.07
2023-01-12T06:14:16.994Z,5.82
2023-01-12T06:16:43.702Z,7.78
2023-01-12T06:19:12.770Z,15.60
2023-01-12T06:21:40.477Z,6.65
2023-01-12T06:24:07.432Z,6.78
2023-01-12T06:26:34.043Z,7.35
2023-01-12T06:29:00.779Z,6.65
2023-01-12T06:31:27.560Z,6.65
2023-01-12T06:33:54.225Z,5.13
2023-01-12T06:36:20.842Z,8.73
2023-01-12T06:38:47.403Z,7.00
2023-01-12T06:41:32.558Z,11.20
2023-01-12T06:43:59.682Z,8.70
2023-01-12T06:46:28.051Z,11.43
2023-01-12T06:48:58.339Z,9.02
2023-01-12T06:51:25.761Z,7.88
2023-01-12T06:53:52.877Z,8.43
2023-01-12T06:56:19.457Z,12.73
2023-01-12T06:58:46.142Z,5.47
2023-01-12T07:01:13.730Z,9.30
2023-01-12T07:03:40.681Z,12.32
2023-01-12T07:06:07.845Z,5.35
2023-01-12T07:08:34.639Z,11.27
2023-01-12T07:11:07.946Z,8.18
2023-01-12T07:13:34.617Z,6.72
2023-01-12T07:16:02.030Z,7.97
2023-01-12T07:18:29.575Z,7.80
2023-01-12T07:20:56.197Z,8.60
2023-01-12T07:23:23.296Z,8.20
2023-01-12T07:25:50.052Z,6.13
2023-01-12T07:28:16.816Z,6.25
2023-01-12T07:30:43.700Z,6.68
2023-01-12T07:33:12.628Z,5.93
2023-01-12T07:35:40.907Z,5.47
2023-01-12T07:38:07.968Z,6.93
2023-01-12T07:40:35.566Z,4.72
2023-01-12T07:43:04.428Z,5.35
2023-01-12T07:45:32.422Z,7.75
2023-01-12T07:47:59.199Z,6.40
2023-01-12T07:50:27.220Z,5.53
2023-01-12T07:52:54.359Z,4.88
2023-01-12T07:55:21.294Z,3.78
2023-01-12T07:58:14.165Z,3.65
2023-01-12T08:00:40.877Z,4.82
2023-01-12T08:03:10.394Z,4.70
2023-01-12T08:05:38.029Z,5.00
2023-01-12T08:08:05.926Z,2.92
2023-01-12T08:10:32.662Z,4.03
2023-01-12T08:12:59.335Z,4.13
2023-01-12T08:15:28.398Z,2.85
2023-01-12T08:18:20.835Z,4.13
2023-01-12T08:23:25.193Z,3.03
2023-01-12T08:25:59.278Z,4.05
2023-01-12T08:28:35.549Z,4.70
2023-01-12T08:31:02.440Z,2.97
2023-01-12T08:33:29.242Z,3.78
2023-01-12T08:35:56.123Z,3.60
2023-01-12T08:38:22.744Z,4.03
2023-01-12T08:41:08.148Z,4.07
2023-01-12T08:43:53.596Z,2.90
2023-01-12T08:46:20.237Z,3.53
2023-01-12T08:48:46.832Z,3.10
2023-01-12T08:51:13.489Z,2.42
2023-01-12T08:53:40.090Z,3.28
2023-01-12T08:56:07.353Z,3.97
2023-01-12T08:58:34.023Z,4.32
2023-01-12T09:01:12.189Z,3.67
2023-01-12T09:03:39.626Z,4.10
2023-01-12T09:06:28.220Z,2.28
2023-01-12T09:08:56.515Z,3.55
2023-01-12T09:11:24.028Z,5.35
2023-01-12T09:13:50.824Z,2.63
2023-01-12T09:16:19.251Z,2.63
2023-01-12T09:18:46.542Z,4.70
2023-01-12T09:21:16.600Z,3.30
2023-01-12T09:23:44.024Z,3.28
2023-01-12T09:26:16.122Z,3.55
2023-01-12T09:31:20.219Z,2.92
2023-01-12T09:33:47.400Z,2.58
2023-01-12T09:36:19.154Z,2.10
2023-01-12T09:38:47.290Z,3.08
2023-01-12T09:41:45.414Z,2.88
2023-01-12T09:44:57.138Z,3.35
2023-01-12T09:47:48.906Z,2.67
2023-01-12T09:50:36.162Z,3.83
2023-01-12T09:53:15.789Z,2.17
2023-01-12T09:56:22.943Z,3.22
2023-01-12T09:59:07.797Z,2.70
2023-01-12T10:01:36.871Z,2.35
2023-01-12T10:04:05.086Z,2.78
2023-01-12T10:06:32.917Z,3.35
2023-01-12T10:09:12.655Z,2.78
2023-01-12T10:11:52.663Z,2.55
2023-01-12T10:14:34.390Z,3.20
2023-01-12T10:17:16.719Z,3.05
2023-01-12T10:20:04.754Z,3.42
2023-01-12T10:22:50.781Z,2.80
2023-01-12T10:25:24.222Z,1.77
2023-01-12T10:27:53.536Z,2.13
2023-01-12T10:30:29.206Z,3.92
2023-01-12T10:32:56.027Z,3.40
2023-01-12T10:35:25.424Z,2.55
2023-01-12T10:37:55.080Z,3.40
2023-01-12T10:40:27.023Z,3.95
2023-01-12T10:43:21.670Z,2.55
2023-01-12T10:46:12.884Z,1.67
2023-01-12T10:48:43.256Z,1.92
2023-01-12T10:51:20.728Z,3.00
2023-01-12T10:54:02.349Z,1.88
2023-01-12T10:56:36.376Z,2.22
2023-01-12T10:59:14.827Z,1.98
2023-01-12T11:02:03.381Z,2.03
2023-01-12T11:04:30.873Z,2.83
2023-01-12T11:07:10.762Z,1.95
2023-01-12T11:09:37.929Z,3.35
2023-01-12T11:12:18.683Z,1.65
2023-01-12T11:15:02.886Z,2.47
2023-01-12T11:17:39.396Z,1.70
2023-01-12T11:20:19.534Z,1.13
2023-01-12T11:22:48.200Z,2.60
2023-01-12T11:25:26.134Z,2.72
2023-01-12T11:28:14.338Z,1.35
2023-01-12T11:31:01.560Z,2.20
2023-01-12T11:33:38.118Z,1.90
2023-01-12T11:36:17.506Z,1.40
2023-01-12T11:39:06.787Z,1.83
2023-01-12T11:42:09.577Z,1.83
2023-01-12T11:45:04.448Z,1.52
2023-01-12T11:47:38.904Z,1.95
2023-01-12T11:50:14.692Z,1.83
2023-01-12T11:52:42.092Z,2.00
2023-01-12T11:55:17.044Z,2.10
2023-01-12T11:57:52.888Z,2.08
2023-01-12T12:00:42.401Z,1.65
2023-01-12T12:03:38.659Z,2.22
2023-01-12T12:06:35.816Z,1.38
2023-01-12T12:09:23.973Z,1.60
2023-01-12T12:12:05.539Z,2.35
2023-01-12T12:14:54.952Z,2.13
2023-01-12T12:17:36.911Z,2.03
2023-01-12T12:20:18.748Z,1.63
2023-01-12T12:23:03.634Z,1.15
2023-01-12T12:25:56.858Z,1.33
2023-01-12T12:28:48.332Z,1.27
2023-01-12T12:31:33.993Z,1.00
2023-01-12T12:34:26.718Z,1.80
2023-01-12T12:37:11.714Z,1.20
2023-01-12T12:40:12.692Z,1.08
2023-01-12T12:43:18.495Z,1.10
2023-01-12T12:46:00.335Z,2.03
2023-01-12T12:48:56.284Z,1.30
2023-01-12T12:51:25.738Z,1.38
2023-01-12T12:53:54.413Z,2.17
2023-01-12T12:56:25.935Z,1.95
2023-01-12T12:58:57.895Z,1.45
2023-01-12T13:01:24.824Z,1.58
2023-01-12T13:03:57.345Z,1.85
2023-01-12T13:06:31.292Z,1.15
2023-01-12T13:08:59.435Z,1.27
2023-01-12T13:11:47.745Z,2.15
2023-01-12T13:14:38.661Z,1.50
2023-01-12T13:17:31.704Z,1.75
2023-01-12T13:20:06.116Z,1.25
2023-01-12T13:22:45.429Z,1.63
2023-01-12T13:25:22.104Z,1.25
2023-01-12T13:28:01.060Z,1.77
2023-01-12T13:30:30.703Z,1.23
2023-01-12T13:33:10.673Z,1.25
2023-01-12T13:35:38.830Z,1.05
2023-01-12T13:38:20.255Z,0.95
2023-01-12T13:40:56.215Z,1.73
2023-01-12T13:43:32.019Z,1.33
2023-01-12T13:46:17.921Z,1.30
2023-01-12T13:48:52.001Z,0.95
2023-01-12T13:51:38.914Z,1.38
2023-01-12T13:54:11.165Z,1.15
2023-01-12T13:56:38.048Z,1.38
2023-01-12T13:59:07.704Z,0.95
2023-01-12T14:01:41.177Z,1.00
2023-01-12T14:04:11.036Z,1.23
2023-01-12T14:06:43.569Z,1.27
2023-01-12T14:09:19.929Z,0.85
2023-01-12T14:12:24.239Z,1.05
2023-01-12T14:15:35.485Z,1.60
2023-01-12T14:18:23.988Z,0.85
2023-01-12T14:20:53.485Z,0.95
2023-01-12T14:23:35.692Z,0.93
2023-01-12T14:28:47.710Z,1.48
2023-01-12T14:31:32.404Z,0.70
2023-01-12T14:34:02.730Z,1.15
2023-01-12T14:36:35.545Z,1.30
2023-01-12T14:39:09.047Z,0.80
2023-01-12T14:41:54.113Z,1.08
2023-01-12T14:44:42.041Z,1.10
2023-01-12T14:47:09.622Z,1.38
2023-01-12T14:49:38.960Z,0.98
2023-01-12T14:52:17.359Z,0.60
2023-01-12T14:54:44.233Z,0.90
2023-01-12T14:57:34.902Z,0.77
2023-01-12T15:00:03.228Z,0.80
2023-01-12T15:02:40.495Z,0.95
2023-01-12T15:05:21.652Z,0.52
2023-01-12T15:08:07.935Z,0.80
2023-01-12T15:10:36.999Z,0.68
2023-01-12T15:13:26.834Z,0.90
2023-01-12T15:16:14.048Z,0.73
2023-01-12T15:18:59.638Z,0.75
2023-01-12T15:21:46.749Z,0.98
2023-01-12T15:27:25.152Z,2.67
2023-01-12T15:29:51.848Z,1.50
2023-01-12T15:32:46.826Z,1.33
2023-01-12T15:35:23.904Z,0.80
2023-01-12T15:37:52.854Z,1.00
2023-01-12T15:40:19.801Z,0.60
2023-01-12T15:42:47.575Z,1.02
2023-01-12T15:45:32.298Z,15.93
2023-01-12T15:47:59.016Z,20.92
2023-01-12T15:50:25.804Z,5.15
2023-01-12T15:52:52.968Z,6.90
2023-01-12T15:55:22.371Z,3.72
2023-01-12T15:57:50.845Z,6.53
2023-01-12T16:00:20.931Z,3.83
2023-01-12T16:02:48.937Z,5.00
2023-01-12T16:05:22.514Z,7.85
2023-01-12T16:07:49.847Z,6.30
2023-01-12T16:10:17.653Z,2.53
2023-01-12T16:12:45.720Z,4.25
2023-01-12T16:15:21.364Z,5.93
2023-01-12T16:17:48.889Z,3.80
2023-01-12T16:20:17.842Z,4.20
2023-01-12T16:22:46.537Z,6.22
2023-01-12T16:25:13.931Z,2.90
2023-01-12T16:27:40.629Z,2.28
2023-01-12T16:30:11.980Z,3.45
2023-01-12T16:32:38.650Z,4.57
2023-01-12T16:35:05.480Z,5.13
2023-01-12T16:37:33.264Z,4.32
2023-01-12T16:40:00.776Z,3.15
2023-01-12T16:42:27.691Z,3.30
2023-01-12T16:44:54.383Z,5.65
2023-01-12T16:47:21.932Z,3.90
2023-01-12T16:49:51.920Z,2.75
2023-01-12T16:52:20.660Z,3.58
2023-01-12T16:54:47.455Z,4.38
2023-01-12T16:57:16.163Z,2.47
2023-01-12T16:59:43.272Z,2.17
2023-01-12T17:02:15.403Z,4.70
2023-01-12T17:04:42.448Z,4.78
2023-01-12T17:07:10.413Z,7.40
2023-01-12T17:09:39.329Z,3.05
2023-01-12T17:12:06.822Z,2.25
2023-01-12T17:14:34.650Z,6.65
2023-01-12T17:17:05.509Z,5.43
2023-01-12T17:19:34.202Z,16.38
2023-01-12T17:22:02.056Z,12.93
2023-01-12T17:24:30.856Z,8.50
2023-01-12T17:26:58.269Z,10.40
2023-01-12T17:29:26.710Z,12.63
2023-01-12T17:31:55.665Z,11.07
2023-01-12T17:34:23.512Z,12.93
2023-01-12T17:36:50.183Z,16.83
2023-01-12T17:39:16.906Z,18.58
2023-01-12T17:42:02.128Z,15.73
2023-01-12T17:44:28.871Z,19.88
2023-01-12T17:46:55.505Z,15.68
2023-01-12T17:49:22.244Z,17.20
2023-01-12T17:51:48.980Z,16.40
2023-01-12T17:54:15.887Z,19.60
2023-01-12T17:56:42.944Z,24.60
2023-01-12T17:59:16.461Z,28.92
2023-01-12T18:01:43.411Z,17.98
2023-01-12T18:04:10.235Z,16.23
2023-01-12T18:06:36.895Z,18.45
2023-01-12T18:09:04.304Z,17.27
2023-01-12T18:11:31.882Z,19.05
2023-01-12T18:13:59.485Z,17.42
2023-01-12T18:16:26.591Z,17.45
2023-01-12T18:18:53.495Z,16.05
2023-01-12T18:21:23.319Z,13.73
2023-01-12T18:23:51.916Z,15.27
2023-01-12T18:26:22.431Z,17.02
2023-01-12T18:28:49.199Z,13.93
2023-01-12T18:31:21.663Z,12.93
2023-01-12T18:34:08.656Z,15.90
2023-01-12T18:36:37.809Z,16.45
2023-01-12T18:39:06.152Z,23.83
2023-01-12T18:41:51.396Z,18.20
2023-01-12T18:44:18.094Z,13.52
2023-01-12T18:47:03.361Z,13.65
2023-01-12T18:49:32.798Z,19.77
2023-01-12T18:52:18.914Z,15.10
2023-01-12T18:54:47.647Z,16.15
2023-01-12T18:57:20.082Z,16.30
2023-01-12T18:59:47.439Z,13.02
2023-01-12T19:02:15.470Z,12.57
2023-01-12T19:04:51.551Z,19.17
2023-01-12T19:07:28.932Z,18.20
2023-01-12T19:09:56.369Z,15.82
2023-01-12T19:12:23.876Z,16.75
2023-01-12T19:15:09.076Z,18.88
2023-01-12T19:17:39.020Z,18.98
2023-01-12T19:20:09.229Z,14.80
2023-01-12T19:22:54.397Z,20.98
2023-01-12T19:25:41.901Z,15.52
2023-01-12T19:28:35.026Z,18.27
2023-01-12T19:31:12.330Z,14.10
2023-01-12T19:33:39.645Z,15.82
2023-01-12T19:36:08.481Z,17.58
2023-01-12T19:38:38.753Z,15.50
2023-01-12T19:41:33.425Z,13.73
2023-01-12T19:44:05.276Z,14.70
2023-01-12T19:46:33.122Z,17.00
2023-01-12T19:49:00.468Z,14.48
2023-01-12T19:51:27.148Z,15.57
2023-01-12T19:53:53.973Z,21.08
2023-01-12T19:56:20.785Z,17.65
2023-01-12T19:58:47.487Z,22.00
2023-01-12T20:01:21.580Z,22.48
2023-01-12T20:03:50.390Z,19.35
2023-01-12T20:06:17.898Z,21.77
2023-01-12T20:08:44.645Z,25.60
2023-01-12T20:11:11.439Z,18.08
2023-01-12T20:13:38.256Z,20.27
2023-01-12T20:16:08.913Z,22.08
2023-01-12T20:18:35.894Z,26.60
2023-01-12T20:21:10.423Z,17.92
2023-01-12T20:23:37.153Z,20.15
2023-01-12T20:26:08.447Z,17.65
2023-01-12T20:28:35.564Z,15.32
2023-01-12T20:31:07.611Z,17.15
2023-01-12T20:36:01.328Z,15.32
2023-01-12T20:38:28.141Z,19.75
2023-01-12T20:40:54.942Z,17.63
2023-01-12T20:43:24.061Z,13.23
2023-01-12T20:45:54.492Z,13.93
2023-01-12T20:48:21.088Z,15.98
2023-01-12T20:50:48.531Z,14.80
2023-01-12T20:53:16.261Z,12.90
2023-01-12T20:55:45.765Z,12.63
2023-01-12T20:58:12.883Z,12.43
2023-01-12T21:00:40.210Z,14.05
2023-01-12T21:03:07.255Z,17.77
2023-01-12T21:05:34.785Z,9.82
2023-01-12T21:08:07.846Z,10.60
2023-01-12T21:10:36.652Z,12.80
2023-01-12T21:13:03.565Z,17.27
2023-01-12T21:15:30.475Z,12.93
2023-01-12T21:17:57.325Z,11.30
2023-01-12T21:20:23.992Z,13.52
2023-01-12T21:22:50.654Z,9.80
2023-01-12T21:25:17.383Z,18.00
2023-01-12T21:27:44.006Z,10.43
2023-01-12T21:30:12.336Z,12.02
2023-01-12T21:32:38.993Z,11.95
2023-01-12T21:35:06.071Z,11.50
2023-01-12T21:37:32.724Z,10.63
2023-01-12T21:39:59.436Z,10.88
2023-01-12T21:42:44.794Z,11.02
2023-01-12T21:45:11.523Z,11.70
2023-01-12T21:47:38.268Z,17.55
2023-01-12T21:50:05.568Z,17.50
2023-01-12T21:52:33.076Z,24.25
2023-01-12T21:54:59.983Z,32.08
2023-01-12T21:57:26.837Z,34.83
2023-01-12T21:59:53.498Z,36.72
2023-01-12T22:02:20.189Z,35.35
2023-01-12T22:04:46.838Z,39.40
2023-01-12T22:07:13.573Z,29.48
2023-01-12T22:09:40.243Z,35.13
2023-01-12T22:12:07.309Z,24.55
2023-01-12T22:14:33.996Z,26.65
2023-01-12T22:17:00.639Z,28.65
2023-01-12T22:19:27.294Z,28.13
2023-01-12T22:21:54.202Z,25.83
2023-01-12T22:24:20.987Z,22.83
2023-01-12T22:26:47.767Z,31.70
2023-01-12T22:29:14.521Z,25.58
2023-01-12T22:31:41.445Z,27.10
2023-01-12T22:34:09.165Z,22.95
2023-01-12T22:36:43.000Z,22.30
2023-01-12T22:39:13.255Z,21.15
2023-01-12T22:41:40.506Z,26.20
2023-01-12T22:44:07.283Z,26.80
2023-01-12T22:46:34.358Z,20.85
2023-01-12T22:49:01.182Z,26.98
2023-01-12T22:51:29.452Z,26.90
2023-01-12T22:53:57.575Z,22.90
2023-01-12T22:56:24.972Z,22.25
2023-01-12T22:58:53.454Z,20.67
2023-01-12T23:01:21.463Z,23.00
2023-01-12T23:03:51.780Z,19.00
2023-01-12T23:06:18.430Z,23.15
2023-01-12T23:08:45.266Z,17.77
2023-01-12T23:11:15.106Z,19.38
2023-01-12T23:13:43.040Z,19.88
2023-01-12T23:16:11.780Z,19.95
2023-01-12T23:18:40.363Z,19.05
2023-01-12T23:21:15.610Z,20.90
2023-01-12T23:23:48.182Z,16.40
2023-01-12T23:26:20.310Z,16.27
2023-01-12T23:28:55.874Z,18.90
2023-01-12T23:31:25.491Z,17.70
2023-01-12T23:33:52.821Z,20.10
2023-01-12T23:36:22.366Z,16.15
2023-01-12T23:38:54.190Z,20.65
2023-01-12T23:41:23.135Z,18.38
2023-01-12T23:43:51.648Z,16.55
2023-01-12T23:46:23.359Z,17.15
2023-01-12T23:48:55.424Z,19.50
2023-01-12T23:51:23.569Z,18.55
2023-01-12T23:53:54.577Z,18.60
2023-01-12T23:56:22.043Z,16.83
2023-01-12T23:58:48.675Z,14.25
